createdAt,value
2022-09-26T00:00:05.797Z,11.10
2022-09-26T00:07:21.811Z,11.20
2022-09-26T00:10:51.436Z,11.20
2022-09-26T00:14:02.678Z,11.30
2022-09-26T00:20:31.871Z,11.20
2022-09-26T00:49:33.517Z,11.10
2022-09-26T01:15:16.427Z,10.90
2022-09-26T01:30:07.764Z,10.90
2022-09-26T02:35:58.985Z,10.90
2022-09-26T02:51:29.265Z,11.20
2022-09-26T02:54:51.687Z,11.30
2022-09-26T02:57:41.380Z,11.30
2022-09-26T03:01:09.470Z,11.40
2022-09-26T03:08:41.420Z,11.40
2022-09-26T03:12:48.210Z,11.50
2022-09-26T03:19:32.180Z,11.50
2022-09-26T03:23:23.164Z,11.60
2022-09-26T03:27:09.914Z,11.60
2022-09-26T03:29:39.618Z,11.70
2022-09-26T03:32:36.700Z,11.70
2022-09-26T03:35:27.425Z,11.70
2022-09-26T03:38:30.235Z,11.80
2022-09-26T03:44:53.931Z,11.70
2022-09-26T03:50:39.074Z,11.80
2022-09-26T03:54:07.419Z,11.80
2022-09-26T03:57:40.494Z,11.80
2022-09-26T04:00:19.765Z,11.80
2022-09-26T04:03:10.724Z,11.90
2022-09-26T04:09:00.478Z,11.80
2022-09-26T04:12:29.760Z,11.80
2022-09-26T04:14:49.871Z,11.80
2022-09-26T04:21:09.969Z,11.70
2022-09-26T04:24:39.350Z,11.70
2022-09-26T04:42:10.683Z,11.50
2022-09-26T04:44:53.653Z,11.40
2022-09-26T04:47:36.143Z,11.40
2022-09-26T04:50:05.003Z,11.40
2022-09-26T04:52:33.886Z,11.40
2022-09-26T04:55:02.339Z,11.30
2022-09-26T04:57:36.411Z,11.40
2022-09-26T05:00:10.032Z,11.30
2022-09-26T05:02:38.682Z,11.30
2022-09-26T05:05:08.940Z,11.30
2022-09-26T05:07:41.497Z,11.20
2022-09-26T05:10:11.828Z,11.20
2022-09-26T05:12:42.092Z,11.20
2022-09-26T05:15:12.289Z,11.20
2022-09-26T05:17:45.346Z,11.30
2022-09-26T05:20:14.595Z,11.30
2022-09-26T05:22:45.581Z,11.30
2022-09-26T05:25:35.627Z,11.30
2022-09-26T05:28:05.670Z,11.40
2022-09-26T05:30:36.006Z,11.40
2022-09-26T05:33:04.849Z,11.40
2022-09-26T05:35:35.156Z,11.40
2022-09-26T05:38:06.291Z,11.50
2022-09-26T05:40:52.360Z,11.50
2022-09-26T05:43:22.873Z,11.60
2022-09-26T05:45:51.580Z,11.60
2022-09-26T05:48:21.088Z,11.60
2022-09-26T05:50:49.450Z,11.70
2022-09-26T05:53:20.717Z,11.70
2022-09-26T05:57:25.249Z,11.80
2022-09-26T05:59:53.708Z,11.80
2022-09-26T06:02:22.791Z,11.90
2022-09-26T06:04:51.677Z,11.90
2022-09-26T06:07:22.298Z,12.00
2022-09-26T06:09:51.494Z,12.10
2022-09-26T06:12:20.605Z,12.30
2022-09-26T06:14:50.582Z,12.40
2022-09-26T06:17:19.346Z,12.40
2022-09-26T06:19:48.189Z,12.40
2022-09-26T06:22:16.415Z,12.40
2022-09-26T06:24:44.923Z,12.40
2022-09-26T06:27:13.536Z,12.30
2022-09-26T06:29:41.835Z,12.30
2022-09-26T06:32:11.532Z,12.30
2022-09-26T06:34:40.741Z,12.30
2022-09-26T06:37:09.301Z,12.30
2022-09-26T06:39:37.703Z,12.30
2022-09-26T06:42:07.581Z,12.30
2022-09-26T06:44:37.258Z,12.30
2022-09-26T06:47:05.912Z,12.40
2022-09-26T06:49:38.509Z,12.70
2022-09-26T06:52:07.156Z,13.00
2022-09-26T06:54:35.902Z,13.70
2022-09-26T06:57:04.068Z,14.30
2022-09-26T06:59:32.675Z,14.80
2022-09-26T07:02:03.328Z,15.10
2022-09-26T07:04:31.769Z,15.30
2022-09-26T07:07:01.582Z,16.00
2022-09-26T07:09:30.287Z,16.70
2022-09-26T07:12:15.799Z,17.30
2022-09-26T07:14:47.115Z,17.60
2022-09-26T07:17:19.373Z,18.20
2022-09-26T07:19:53.167Z,18.40
2022-09-26T07:22:23.438Z,18.60
2022-09-26T07:24:52.071Z,18.90
2022-09-26T07:27:22.352Z,18.70
2022-09-26T07:29:53.810Z,18.80
2022-09-26T07:32:25.671Z,18.90
2022-09-26T07:34:54.541Z,19.40
2022-09-26T07:37:25.145Z,19.40
2022-09-26T07:40:01.301Z,18.70
2022-09-26T07:42:30.089Z,17.80
2022-09-26T07:48:07.693Z,15.90
2022-09-26T07:50:36.287Z,15.70
2022-09-26T07:53:06.269Z,15.80
2022-09-26T07:55:55.025Z,16.00
2022-09-26T07:58:26.109Z,15.90
2022-09-26T08:00:54.546Z,15.70
2022-09-26T08:03:26.401Z,15.60
2022-09-26T08:08:07.294Z,16.80
2022-09-26T08:10:36.024Z,17.30
2022-09-26T08:13:04.340Z,17.10
2022-09-26T08:15:35.233Z,16.80
2022-09-26T08:18:04.823Z,16.80
2022-09-26T08:20:34.426Z,16.80
2022-09-26T08:23:02.931Z,16.90
2022-09-26T08:25:35.543Z,17.30
2022-09-26T08:28:12.580Z,17.40
2022-09-26T08:30:40.984Z,17.20
2022-09-26T08:33:12.720Z,16.80
2022-09-26T08:35:41.197Z,16.30
2022-09-26T08:38:15.766Z,16.10
2022-09-26T08:40:54.674Z,16.10
2022-09-26T08:43:40.082Z,15.70
2022-09-26T08:46:45.370Z,15.70
2022-09-26T08:49:41.851Z,15.40
2022-09-26T08:52:23.930Z,15.30
2022-09-26T08:54:54.782Z,15.40
2022-09-26T08:57:34.894Z,15.50
2022-09-26T09:00:11.943Z,15.70
2022-09-26T09:02:49.115Z,15.80
2022-09-26T09:05:23.871Z,15.90
2022-09-26T09:07:58.698Z,16.10
2022-09-26T09:10:45.381Z,15.90
2022-09-26T09:13:32.446Z,16.10
2022-09-26T09:16:23.263Z,16.90
2022-09-26T09:19:00.093Z,18.20
2022-09-26T09:21:42.196Z,18.30
2022-09-26T09:24:19.495Z,18.70
2022-09-26T09:31:55.296Z,22.90
2022-09-26T09:34:29.846Z,23.50
2022-09-26T09:37:01.077Z,24.00
2022-09-26T09:39:55.476Z,22.50
2022-09-26T09:42:29.415Z,25.00
2022-09-26T09:46:36.293Z,24.10
2022-09-26T09:49:21.376Z,23.60
2022-09-26T09:52:02.989Z,24.30
2022-09-26T09:54:53.420Z,23.70
2022-09-26T09:57:44.603Z,23.40
2022-09-26T10:00:20.237Z,23.30
2022-09-26T10:03:02.430Z,23.20
2022-09-26T10:05:39.222Z,23.10
2022-09-26T10:08:13.854Z,23.00
2022-09-26T10:10:51.365Z,23.00
2022-09-26T10:13:22.515Z,23.00
2022-09-26T10:15:58.307Z,23.00
2022-09-26T10:18:28.910Z,22.90
2022-09-26T10:21:00.297Z,22.90
2022-09-26T10:23:34.018Z,22.80
2022-09-26T10:26:05.355Z,22.80
2022-09-26T10:28:37.914Z,22.70
2022-09-26T10:31:12.108Z,22.70
2022-09-26T10:33:46.362Z,22.80
2022-09-26T10:36:21.216Z,22.80
2022-09-26T10:39:10.636Z,22.70
2022-09-26T10:41:45.385Z,22.70
2022-09-26T10:44:24.503Z,22.60
2022-09-26T10:46:58.372Z,22.60
2022-09-26T10:49:37.015Z,22.60
2022-09-26T10:52:18.184Z,22.60
2022-09-26T10:54:57.367Z,23.50
2022-09-26T10:57:30.753Z,23.50
2022-09-26T11:00:01.209Z,23.40
2022-09-26T11:02:30.121Z,23.40
2022-09-26T11:05:19.631Z,23.30
2022-09-26T11:07:49.662Z,23.30
2022-09-26T11:10:25.720Z,23.30
2022-09-26T11:13:04.088Z,23.20
2022-09-26T11:15:33.325Z,23.20
2022-09-26T11:18:02.102Z,23.20
2022-09-26T11:20:46.508Z,23.20
2022-09-26T11:23:29.893Z,23.20
2022-09-26T11:26:07.292Z,23.20
2022-09-26T11:28:42.618Z,23.20
2022-09-26T11:31:25.261Z,23.20
2022-09-26T11:33:55.347Z,23.20
2022-09-26T11:36:45.361Z,23.20
2022-09-26T11:39:30.405Z,23.10
2022-09-26T11:42:13.783Z,23.10
2022-09-26T11:44:58.034Z,23.00
2022-09-26T11:47:41.806Z,22.90
2022-09-26T11:50:29.010Z,22.90
2022-09-26T11:53:15.270Z,22.80
2022-09-26T11:55:58.577Z,22.80
2022-09-26T11:58:41.647Z,22.70
2022-09-26T12:01:22.651Z,22.70
2022-09-26T12:04:17.219Z,22.70
2022-09-26T12:06:55.527Z,22.70
2022-09-26T12:09:47.520Z,22.70
2022-09-26T12:12:24.671Z,22.70
2022-09-26T12:15:15.187Z,22.70
2022-09-26T12:17:59.707Z,22.70
2022-09-26T12:20:35.787Z,22.70
2022-09-26T12:23:15.119Z,22.70
2022-09-26T12:25:57.088Z,22.70
2022-09-26T12:28:45.316Z,22.70
2022-09-26T12:31:21.107Z,22.70
2022-09-26T12:34:11.401Z,22.70
2022-09-26T12:36:56.435Z,22.70
2022-09-26T12:39:58.592Z,22.70
2022-09-26T12:42:48.873Z,22.70
2022-09-26T12:45:42.427Z,22.70
2022-09-26T12:48:29.752Z,22.60
2022-09-26T12:51:15.532Z,22.60
2022-09-26T12:54:33.293Z,22.60
2022-09-26T12:57:11.556Z,22.60
2022-09-26T12:59:59.584Z,22.60
2022-09-26T13:02:55.888Z,22.60
2022-09-26T13:05:39.478Z,22.50
2022-09-26T13:08:17.020Z,22.50
2022-09-26T13:11:01.729Z,22.50
2022-09-26T13:13:54.580Z,22.50
2022-09-26T13:16:34.202Z,22.50
2022-09-26T13:19:12.525Z,22.50
2022-09-26T13:21:47.650Z,22.50
2022-09-26T13:24:22.237Z,22.40
2022-09-26T13:26:55.395Z,22.50
2022-09-26T13:29:29.983Z,22.40
2022-09-26T13:32:21.635Z,22.40
2022-09-26T13:34:55.869Z,22.40
2022-09-26T13:37:36.580Z,22.40
2022-09-26T13:40:21.364Z,22.40
2022-09-26T13:43:00.731Z,22.40
2022-09-26T13:45:41.293Z,22.30
2022-09-26T13:48:21.060Z,22.30
2022-09-26T13:50:56.071Z,22.30
2022-09-26T13:53:29.752Z,22.30
2022-09-26T13:56:30.674Z,22.20
2022-09-26T13:59:26.047Z,22.20
2022-09-26T14:02:23.518Z,22.20
2022-09-26T14:04:54.488Z,22.10
2022-09-26T14:07:44.847Z,22.10
2022-09-26T14:10:39.999Z,22.10
2022-09-26T14:13:22.014Z,22.10
2022-09-26T14:15:59.695Z,22.10
2022-09-26T14:18:54.594Z,22.10
2022-09-26T14:21:39.536Z,22.10
2022-09-26T14:24:31.913Z,22.00
2022-09-26T14:27:39.567Z,22.00
2022-09-26T14:30:28.619Z,22.00
2022-09-26T14:33:02.328Z,22.00
2022-09-26T14:35:33.245Z,22.00
2022-09-26T14:38:05.858Z,22.00
2022-09-26T14:40:36.161Z,22.00
2022-09-26T14:43:13.350Z,22.00
2022-09-26T14:45:51.374Z,21.90
2022-09-26T14:48:33.443Z,21.90
2022-09-26T14:51:05.543Z,21.90
2022-09-26T14:53:40.208Z,21.90
2022-09-26T14:56:13.331Z,21.90
2022-09-26T14:58:51.513Z,21.90
2022-09-26T15:01:27.915Z,21.80
2022-09-26T15:03:59.343Z,21.90
2022-09-26T15:06:30.225Z,21.80
2022-09-26T15:09:00.430Z,21.80
2022-09-26T15:11:39.196Z,21.80
2022-09-26T15:14:20.919Z,21.80
2022-09-26T15:16:57.663Z,21.80
2022-09-26T15:19:32.796Z,21.80
2022-09-26T15:22:04.280Z,21.80
2022-09-26T15:24:35.517Z,21.70
2022-09-26T15:27:12.122Z,21.70
2022-09-26T15:29:47.010Z,21.70
2022-09-26T15:32:20.428Z,21.70
2022-09-26T15:34:49.428Z,21.70
2022-09-26T15:37:23.175Z,21.60
2022-09-26T15:39:53.196Z,21.60
2022-09-26T15:42:44.918Z,21.60
2022-09-26T15:45:27.668Z,21.60
2022-09-26T15:47:57.449Z,21.60
2022-09-26T15:50:36.277Z,21.60
2022-09-26T15:53:11.619Z,21.60
2022-09-26T15:55:51.610Z,21.60
2022-09-26T15:58:25.744Z,21.50
2022-09-26T16:00:55.212Z,21.50
2022-09-26T16:03:40.061Z,21.50
2022-09-26T16:06:24.121Z,21.50
2022-09-26T16:08:55.473Z,21.50
2022-09-26T16:11:26.122Z,21.50
2022-09-26T16:13:56.762Z,21.50
2022-09-26T16:16:32.396Z,21.50
2022-09-26T16:19:03.410Z,21.50
2022-09-26T16:21:34.311Z,21.50
2022-09-26T16:24:22.767Z,21.50
2022-09-26T16:26:53.655Z,21.50
2022-09-26T16:29:33.149Z,21.40
2022-09-26T16:32:02.509Z,21.40
2022-09-26T16:34:31.879Z,21.40
2022-09-26T16:37:00.498Z,21.40
2022-09-26T16:39:31.454Z,21.40
2022-09-26T16:42:05.888Z,21.40
2022-09-26T16:44:37.500Z,21.40
2022-09-26T16:47:09.368Z,21.40
2022-09-26T16:49:45.895Z,21.40
2022-09-26T16:52:32.153Z,21.30
2022-09-26T16:55:02.568Z,21.30
2022-09-26T16:57:35.806Z,21.30
2022-09-26T17:00:26.722Z,21.30
2022-09-26T17:02:55.402Z,21.30
2022-09-26T17:05:23.777Z,21.30
2022-09-26T17:07:53.857Z,21.30
2022-09-26T17:10:26.012Z,21.30
2022-09-26T17:12:56.484Z,21.30
2022-09-26T17:15:29.003Z,21.20
2022-09-26T17:17:58.465Z,21.20
2022-09-26T17:20:27.055Z,21.20
2022-09-26T17:22:55.889Z,21.20
2022-09-26T17:25:25.573Z,21.20
2022-09-26T17:27:59.744Z,21.20
2022-09-26T17:30:28.285Z,21.20
2022-09-26T17:32:59.035Z,21.20
2022-09-26T17:35:33.471Z,21.20
2022-09-26T17:38:02.471Z,21.20
2022-09-26T17:40:32.790Z,21.20
2022-09-26T17:43:05.709Z,21.10
2022-09-26T17:45:38.460Z,21.10
2022-09-26T17:48:13.856Z,21.10
2022-09-26T17:50:42.916Z,21.10
2022-09-26T17:53:20.674Z,21.10
2022-09-26T17:55:49.462Z,21.10
2022-09-26T17:58:19.897Z,21.10
2022-09-26T18:00:51.350Z,21.10
2022-09-26T18:03:25.122Z,21.10
2022-09-26T18:05:54.383Z,21.10
2022-09-26T18:08:25.865Z,21.10
2022-09-26T18:10:56.990Z,21.10
2022-09-26T18:13:31.584Z,21.10
2022-09-26T18:16:00.371Z,21.10
2022-09-26T18:18:31.420Z,21.10
2022-09-26T18:21:04.035Z,21.10
2022-09-26T18:23:42.547Z,21.10
2022-09-26T18:26:20.372Z,21.10
2022-09-26T18:28:50.922Z,21.10
2022-09-26T18:31:22.675Z,21.10
2022-09-26T18:33:51.241Z,21.10
2022-09-26T18:36:19.921Z,21.10
2022-09-26T18:38:48.182Z,21.10
2022-09-26T18:41:25.131Z,21.10
2022-09-26T18:44:01.157Z,21.10
2022-09-26T18:46:30.939Z,21.10
2022-09-26T18:49:06.746Z,21.10
2022-09-26T18:51:35.291Z,21.10
2022-09-26T18:54:11.298Z,21.10
2022-09-26T18:56:57.628Z,21.10
2022-09-26T18:59:31.367Z,21.10
2022-09-26T19:02:02.894Z,21.10
2022-09-26T19:04:31.948Z,21.10
2022-09-26T19:07:02.684Z,21.10
2022-09-26T19:09:34.582Z,21.10
2022-09-26T19:12:04.663Z,21.10
2022-09-26T19:14:35.644Z,21.10
2022-09-26T19:17:04.765Z,21.10
2022-09-26T19:19:33.620Z,21.10
2022-09-26T19:22:08.288Z,21.00
2022-09-26T19:24:39.533Z,21.10
2022-09-26T19:27:13.682Z,21.10
2022-09-26T19:29:46.620Z,21.00
2022-09-26T19:32:21.025Z,21.00
2022-09-26T19:34:53.804Z,21.00
2022-09-26T19:37:24.279Z,21.00
2022-09-26T19:39:52.912Z,21.00
2022-09-26T19:42:21.408Z,21.00
2022-09-26T19:44:51.423Z,21.00
2022-09-26T19:47:22.840Z,21.00
2022-09-26T19:49:53.239Z,21.00
2022-09-26T19:52:23.202Z,21.00
2022-09-26T19:54:52.280Z,21.00
2022-09-26T19:57:23.241Z,21.00
2022-09-26T19:59:53.163Z,21.00
2022-09-26T20:02:25.636Z,21.00
2022-09-26T20:04:54.077Z,21.00
2022-09-26T20:07:22.761Z,21.00
2022-09-26T20:09:51.566Z,21.00
2022-09-26T20:12:20.887Z,21.00
2022-09-26T20:14:49.358Z,21.00
2022-09-26T20:17:24.671Z,21.00
2022-09-26T20:19:58.598Z,21.00
2022-09-26T20:22:27.902Z,21.00
2022-09-26T20:24:57.138Z,21.00
2022-09-26T20:27:28.019Z,21.00
2022-09-26T20:30:14.884Z,21.00
2022-09-26T20:32:44.972Z,21.00
2022-09-26T20:35:16.579Z,21.00
2022-09-26T20:37:46.104Z,20.90
2022-09-26T20:40:18.359Z,20.90
2022-09-26T20:42:50.176Z,20.90
2022-09-26T20:45:21.702Z,20.90
2022-09-26T20:47:51.681Z,20.90
2022-09-26T20:50:21.618Z,20.90
2022-09-26T20:52:49.921Z,20.90
2022-09-26T20:55:19.796Z,20.90
2022-09-26T20:57:48.195Z,20.90
2022-09-26T21:00:17.880Z,20.90
2022-09-26T21:02:48.012Z,20.90
2022-09-26T21:05:20.187Z,20.90
2022-09-26T21:07:48.882Z,20.90
